Time;durP1;ratioP1;P1;durP2;ratioP2;P2;SDS_P1;SDS_P2;PMS_P1;PMS_P2;Temp;Humidity;BMP_temperature;BMP_pressure;BME280_temperature;BME280_humidity;BME280_pressure;Samples;Min_cycle;Max_cycle;Signal;HPM_P1;HPM_P2
2023/05/10 00:01:23;;;;;;;7.88;6.88;;;14.10;99.90;;;;;;5112318;28;20487;-72
2023/05/10 00:03:48;;;;;;;7.25;6.15;;;14.00;99.90;;;;;;5111562;28;20579;-72
2023/05/10 00:06:14;;;;;;;9.35;7.70;;;13.90;99.90;;;;;;5111465;28;20506;-72
2023/05/10 00:08:39;;;;;;;8.13;7.03;;;13.80;99.90;;;;;;5112409;28;20509;-72
2023/05/10 00:11:05;;;;;;;12.73;8.32;;;13.80;99.90;;;;;;5110673;28;20036;-72
2023/05/10 00:13:31;;;;;;;11.10;9.10;;;13.80;99.90;;;;;;5111112;28;20119;-72
2023/05/10 00:15:57;;;;;;;12.40;8.73;;;13.70;99.90;;;;;;5111122;28;20047;-72
2023/05/10 00:18:22;;;;;;;10.57;9.02;;;13.70;99.90;;;;;;5111209;28;20043;-72
2023/05/10 00:20:48;;;;;;;12.57;9.68;;;13.70;99.90;;;;;;5094266;28;20172;-72
2023/05/10 00:23:14;;;;;;;13.70;9.75;;;13.60;99.90;;;;;;5110896;28;20040;-72
2023/05/10 00:25:40;;;;;;;11.88;10.00;;;13.60;99.90;;;;;;5112238;28;20040;-72
2023/05/10 00:28:05;;;;;;;13.13;10.00;;;13.60;99.90;;;;;;5112010;28;20043;-72
2023/05/10 00:30:31;;;;;;;10.52;8.38;;;13.60;99.90;;;;;;5111179;28;20032;-72
2023/05/10 00:32:56;;;;;;;11.20;8.77;;;13.60;99.90;;;;;;5110827;28;20093;-73
2023/05/10 00:35:22;;;;;;;10.45;7.40;;;13.50;99.90;;;;;;5093793;28;20035;-72
2023/05/10 00:37:48;;;;;;;11.88;8.68;;;13.50;99.90;;;;;;5110688;28;20054;-72
2023/05/10 00:40:13;;;;;;;9.88;7.90;;;13.50;99.90;;;;;;5110780;28;20047;-72
2023/05/10 00:42:40;;;;;;;11.13;8.52;;;13.50;99.90;;;;;;5112089;28;20071;-72
2023/05/10 00:45:06;;;;;;;11.05;8.20;;;13.50;99.90;;;;;;5110645;28;20075;-72
2023/05/10 00:47:32;;;;;;;10.95;7.70;;;13.50;99.90;;;;;;5110558;28;20046;-72
2023/05/10 00:50:00;;;;;;;11.93;8.32;;;13.50;99.90;;;;;;5110709;28;20126;-72
2023/05/10 00:52:26;;;;;;;11.65;8.02;;;13.50;99.90;;;;;;5111729;28;20051;-72
2023/05/10 00:54:53;;;;;;;9.60;7.50;;;13.40;99.90;;;;;;5110603;28;20043;-72
2023/05/10 00:57:19;;;;;;;11.02;8.45;;;13.40;99.90;;;;;;5111605;28;20518;-72
2023/05/10 00:59:45;;;;;;;12.38;8.80;;;13.40;99.90;;;;;;5110602;28;20035;-72
2023/05/10 01:02:11;;;;;;;12.77;9.32;;;13.40;99.90;;;;;;5111571;28;20169;-72
2023/05/10 01:04:38;;;;;;;13.55;9.45;;;13.40;99.90;;;;;;5111944;28;20044;-72
2023/05/10 01:07:03;;;;;;;14.05;8.88;;;13.30;99.90;;;;;;5111568;28;20044;-72
2023/05/10 01:09:29;;;;;;;11.82;8.23;;;13.40;99.90;;;;;;5111696;28;20043;-72
2023/05/10 01:11:55;;;;;;;12.77;9.65;;;13.40;99.90;;;;;;5110190;28;20043;-72
2023/05/10 01:14:21;;;;;;;15.52;8.52;;;13.40;99.90;;;;;;5110506;28;20040;-72
2023/05/10 01:16:49;;;;;;;11.05;8.57;;;13.40;99.90;;;;;;5110765;28;20046;-73
2023/05/10 01:19:29;;;;;;;11.38;9.02;;;13.40;99.90;;;;;;5110766;28;20048;-72
2023/05/10 01:22:20;;;;;;;11.02;7.90;;;13.30;99.90;;;;;;5111775;28;20031;-72
2023/05/10 01:25:22;;;;;;;11.23;7.50;;;13.30;99.90;;;;;;5115318;28;20054;-72
2023/05/10 01:28:25;;;;;;;10.25;6.90;;;13.30;99.90;;;;;;5115610;28;20039;-72
2023/05/10 01:31:13;;;;;;;8.77;6.70;;;13.30;99.90;;;;;;5114407;28;20384;-72
2023/05/10 01:33:44;;;;;;;10.77;6.60;;;13.30;99.90;;;;;;5115520;28;20036;-72
2023/05/10 01:36:25;;;;;;;9.30;6.30;;;13.30;99.90;;;;;;5113970;28;20040;-72
2023/05/10 01:38:57;;;;;;;10.52;7.30;;;13.30;99.90;;;;;;5115271;28;20045;-72
2023/05/10 01:41:49;;;;;;;12.48;7.93;;;13.30;99.90;;;;;;5113925;28;20513;-72
2023/05/10 01:44:37;;;;;;;10.05;7.70;;;13.20;99.90;;;;;;5110980;28;20411;-72
2023/05/10 01:47:09;;;;;;;9.75;7.07;;;13.30;99.90;;;;;;5114922;28;20406;-72
2023/05/10 01:49:41;;;;;;;10.88;8.40;;;13.30;99.90;;;;;;5115054;28;20040;-72
2023/05/10 01:52:11;;;;;;;8.95;7.40;;;13.30;99.90;;;;;;5114795;28;20545;-72
2023/05/10 01:54:42;;;;;;;11.68;8.38;;;13.30;99.90;;;;;;5115067;28;20483;-72
2023/05/10 01:57:11;;;;;;;11.15;8.07;;;13.30;99.90;;;;;;5114860;28;20040;-72
2023/05/10 01:59:40;;;;;;;9.77;7.30;;;13.30;99.90;;;;;;5114957;28;20080;-72
2023/05/10 02:02:07;;;;;;;10.63;7.60;;;13.30;99.90;;;;;;5114463;28;20495;-72
2023/05/10 02:04:37;;;;;;;11.50;8.30;;;13.30;99.90;;;;;;5113436;28;20083;-72
2023/05/10 02:07:04;;;;;;;9.80;7.43;;;13.20;99.90;;;;;;5114698;28;20043;-72
2023/05/10 02:09:32;;;;;;;12.40;8.63;;;13.30;99.90;;;;;;5113500;28;20048;-72
2023/05/10 02:11:59;;;;;;;9.75;7.55;;;13.20;99.90;;;;;;5113291;28;20567;-72
2023/05/10 02:14:26;;;;;;;9.75;7.30;;;13.20;99.90;;;;;;5113398;28;20093;-72
2023/05/10 02:16:55;;;;;;;11.45;7.93;;;13.30;99.90;;;;;;5113027;28;20512;-73
2023/05/10 02:19:23;;;;;;;9.73;7.45;;;13.20;99.90;;;;;;5113295;28;20047;-72
2023/05/10 02:21:51;;;;;;;11.43;7.93;;;13.20;99.90;;;;;;5114586;28;20123;-72
2023/05/10 02:24:18;;;;;;;10.90;8.05;;;13.20;99.90;;;;;;5114539;28;20122;-73
2023/05/10 02:26:47;;;;;;;11.32;7.70;;;13.20;99.90;;;;;;5114289;28;20040;-72
2023/05/10 02:29:14;;;;;;;10.35;8.02;;;13.20;99.90;;;;;;5113027;28;20513;-72
2023/05/10 02:31:43;;;;;;;11.63;8.20;;;13.10;99.90;;;;;;5112927;28;20044;-73
2023/05/10 02:34:10;;;;;;;15.52;9.30;;;13.20;99.90;;;;;;5113886;28;20042;-72
2023/05/10 02:36:36;;;;;;;13.52;9.18;;;13.20;99.90;;;;;;5114268;28;20089;-72
2023/05/10 02:39:03;;;;;;;11.95;8.73;;;13.10;99.90;;;;;;5114133;28;20035;-72
2023/05/10 02:41:32;;;;;;;11.45;8.15;;;13.10;99.90;;;;;;5114054;28;20483;-72
2023/05/10 02:44:01;;;;;;;12.20;8.70;;;13.10;99.90;;;;;;5114046;28;20044;-72
2023/05/10 02:46:26;;;;;;;12.20;9.35;;;13.10;99.90;;;;;;5112848;28;20048;-72
2023/05/10 02:48:52;;;;;;;11.57;7.97;;;13.00;99.90;;;;;;5114056;28;20035;-72
2023/05/10 02:51:20;;;;;;;14.00;8.95;;;13.00;99.90;;;;;;5112637;28;20161;-72
2023/05/10 02:53:49;;;;;;;14.20;10.02;;;13.10;99.90;;;;;;5112678;28;20047;-72
2023/05/10 02:56:24;;;;;;;12.25;9.27;;;13.00;99.90;;;;;;5113705;28;20036;-72
2023/05/10 02:58:50;;;;;;;11.50;8.50;;;13.00;99.90;;;;;;5113896;28;20040;-72
2023/05/10 03:01:16;;;;;;;13.15;9.70;;;13.00;99.90;;;;;;5112745;28;20092;-72
2023/05/10 03:03:42;;;;;;;13.55;9.65;;;13.00;99.90;;;;;;5113693;28;20038;-73
2023/05/10 03:06:07;;;;;;;11.27;8.45;;;13.00;99.90;;;;;;5113704;27;20040;-72
2023/05/10 03:08:33;;;;;;;12.68;8.98;;;13.00;99.90;;;;;;5111839;28;20036;-73
2023/05/10 03:11:09;;;;;;;12.60;8.85;;;13.00;99.90;;;;;;5113541;28;20067;-72
2023/05/10 03:13:42;;;;;;;12.70;8.95;;;13.00;99.90;;;;;;5113526;28;20047;-72
2023/05/10 03:16:16;;;;;;;13.57;8.85;;;12.90;99.90;;;;;;5113411;28;20089;-72
2023/05/10 03:18:56;;;;;;;14.18;10.20;;;12.90;99.90;;;;;;5113390;28;20087;-72
2023/05/10 03:21:26;;;;;;;13.77;9.57;;;12.90;99.90;;;;;;5112341;28;20051;-72
2023/05/10 03:23:59;;;;;;;13.80;9.27;;;12.90;99.90;;;;;;5113692;28;20055;-72
2023/05/10 03:26:26;;;;;;;14.65;9.55;;;12.90;99.90;;;;;;5113142;28;20039;-72
2023/05/10 03:28:53;;;;;;;19.00;11.63;;;12.90;99.90;;;;;;5113141;28;20104;-72
2023/05/10 03:31:19;;;;;;;17.13;11.43;;;12.90;99.90;;;;;;5113208;28;20046;-72
2023/05/10 03:33:52;;;;;;;16.02;11.23;;;12.90;99.90;;;;;;5112763;28;20044;-72
2023/05/10 03:36:18;;;;;;;;;;;12.90;99.90;;;;;;5112148;28;20517;-72
2023/05/10 03:38:43;;;;;;;20.17;12.50;;;12.80;99.90;;;;;;5111873;28;19915;-72
2023/05/10 03:41:09;;;;;;;27.35;15.10;;;12.80;99.90;;;;;;5111618;28;20042;-72
2023/05/10 03:43:35;;;;;;;25.77;15.60;;;12.90;99.90;;;;;;5112461;28;20035;-72
2023/05/10 03:46:04;;;;;;;21.90;13.77;;;12.80;99.90;;;;;;5112002;28;20035;-72
2023/05/10 03:48:31;;;;;;;26.30;13.57;;;12.90;99.90;;;;;;5112652;28;20085;-72
2023/05/10 03:50:57;;;;;;;31.50;16.63;;;12.90;99.90;;;;;;5111845;28;20399;-72
2023/05/10 03:53:22;;;;;;;25.15;13.38;;;12.90;99.90;;;;;;5112385;28;20036;-72
2023/05/10 03:55:48;;;;;;;30.27;14.98;;;12.90;99.90;;;;;;5094605;28;20106;-72
2023/05/10 03:58:14;;;;;;;22.52;13.98;;;12.90;99.90;;;;;;5111320;28;20067;-72
2023/05/10 04:00:43;;;;;;;26.42;13.93;;;12.90;99.90;;;;;;5112441;28;20438;-72
2023/05/10 04:03:09;;;;;;;23.73;13.48;;;12.90;99.90;;;;;;5111187;28;20171;-72
2023/05/10 04:05:35;;;;;;;22.77;13.05;;;12.90;99.90;;;;;;5112339;28;20039;-72
2023/05/10 04:08:01;;;;;;;22.77;13.00;;;12.90;99.90;;;;;;5112267;28;20517;-72
2023/05/10 04:10:27;;;;;;;25.02;13.70;;;12.90;99.90;;;;;;5110558;28;20046;-72
2023/05/10 04:12:52;;;;;;;26.20;14.65;;;12.80;99.90;;;;;;5111178;28;20031;-72
2023/05/10 04:15:18;;;;;;;27.60;13.40;;;12.90;99.90;;;;;;5110626;28;20105;-72
2023/05/10 04:17:44;;;;;;;26.50;15.45;;;12.80;99.90;;;;;;5110973;28;20372;-72
2023/05/10 04:20:10;;;;;;;28.67;15.68;;;12.90;99.90;;;;;;5112237;28;20114;-72
2023/05/10 04:22:36;;;;;;;23.17;14.20;;;12.90;99.90;;;;;;5112325;28;20035;-72
2023/05/10 04:25:01;;;;;;;21.15;12.23;;;12.90;99.90;;;;;;5110800;28;20172;-72
2023/05/10 04:27:27;;;;;;;26.27;13.65;;;12.90;99.90;;;;;;5112137;28;20040;-72
2023/05/10 04:29:52;;;;;;;24.92;14.73;;;12.80;99.90;;;;;;5112218;28;20070;-73
2023/05/10 04:32:20;;;;;;;21.83;12.80;;;12.80;99.90;;;;;;5110573;28;20040;-72
2023/05/10 04:34:45;;;;;;;23.90;13.73;;;12.90;99.90;;;;;;5110826;28;20048;-72
2023/05/10 04:37:11;;;;;;;21.85;12.63;;;12.80;99.90;;;;;;5111971;28;20399;-72
2023/05/10 04:39:36;;;;;;;24.13;12.65;;;12.80;99.90;;;;;;5110995;28;20119;-73
2023/05/10 04:42:05;;;;;;;24.08;14.18;;;12.80;99.90;;;;;;5112025;28;20055;-72
2023/05/10 04:44:31;;;;;;;18.27;11.38;;;12.80;99.90;;;;;;5111954;28;20048;-73
2023/05/10 04:46:57;;;;;;;17.90;10.85;;;12.80;99.90;;;;;;5110533;28;20040;-73
2023/05/10 04:49:22;;;;;;;25.08;11.75;;;12.80;99.90;;;;;;5111075;28;20046;-72
2023/05/10 04:51:48;;;;;;;22.00;12.30;;;12.70;99.90;;;;;;5093602;28;20047;-73
2023/05/10 04:54:14;;;;;;;17.83;12.35;;;12.80;99.90;;;;;;5110792;28;20118;-73
2023/05/10 04:56:40;;;;;;;18.85;12.23;;;12.80;99.90;;;;;;5112106;28;20110;-73
2023/05/10 04:59:06;;;;;;;20.52;11.07;;;12.80;99.90;;;;;;5114650;28;20051;-72
2023/05/10 05:01:31;;;;;;;18.25;11.93;;;12.80;99.90;;;;;;5114839;28;20402;-73
2023/05/10 05:03:57;;;;;;;17.55;10.43;;;12.80;99.90;;;;;;5116176;28;20040;-72
2023/05/10 05:06:24;;;;;;;15.10;9.68;;;12.80;99.90;;;;;;5114638;28;20070;-73
2023/05/10 05:08:50;;;;;;;18.25;11.10;;;12.80;99.90;;;;;;5114488;28;20047;-72
2023/05/10 05:11:16;;;;;;;16.27;9.82;;;12.80;99.90;;;;;;5114522;28;20078;-72
2023/05/10 05:13:42;;;;;;;16.27;9.85;;;12.80;99.90;;;;;;5114430;28;20122;-72
2023/05/10 05:16:07;;;;;;;13.30;8.95;;;12.80;99.90;;;;;;5115937;28;20040;-72
2023/05/10 05:18:33;;;;;;;13.30;8.77;;;12.80;99.90;;;;;;5115370;28;20522;-72
2023/05/10 05:20:58;;;;;;;10.48;7.15;;;12.70;99.90;;;;;;5113735;28;20515;-73
2023/05/10 05:23:24;;;;;;;9.23;6.50;;;12.80;99.90;;;;;;5113858;28;20490;-72
2023/05/10 05:25:52;;;;;;;10.68;6.05;;;12.70;99.90;;;;;;5097277;28;20058;-72
2023/05/10 05:28:18;;;;;;;9.90;5.88;;;12.70;99.90;;;;;;5114340;28;20078;-72
2023/05/10 05:30:44;;;;;;;9.63;5.72;;;12.70;99.90;;;;;;5114508;28;20440;-72
2023/05/10 05:33:09;;;;;;;7.57;5.10;;;12.70;99.90;;;;;;5114065;28;20049;-72
2023/05/10 05:35:35;;;;;;;5.32;4.45;;;12.70;99.90;;;;;;5115417;28;20059;-72
2023/05/10 05:38:01;;;;;;;8.15;4.95;;;12.70;99.90;;;;;;5113851;28;20040;-72
2023/05/10 05:40:26;;;;;;;7.55;5.28;;;12.70;99.90;;;;;;5115351;28;20395;-72
2023/05/10 05:42:52;;;;;;;6.32;4.53;;;12.70;99.90;;;;;;5114032;28;20545;-72
2023/05/10 05:45:17;;;;;;;9.55;4.50;;;12.60;99.90;;;;;;5115369;28;20036;-72
2023/05/10 05:47:43;;;;;;;4.30;3.80;;;12.70;99.90;;;;;;5113741;28;20058;-72
2023/05/10 05:50:09;;;;;;;5.60;3.80;;;12.70;99.90;;;;;;5115323;28;20487;-73
2023/05/10 05:52:35;;;;;;;5.75;3.45;;;12.60;99.90;;;;;;5114976;28;20050;-73
2023/05/10 05:55:01;;;;;;;4.80;3.55;;;12.60;99.90;;;;;;5113691;28;20043;-73
2023/05/10 05:57:27;;;;;;;3.75;3.00;;;12.70;99.90;;;;;;5114606;28;20186;-72
2023/05/10 05:59:52;;;;;;;6.07;3.92;;;12.70;99.90;;;;;;5115166;28;20057;-73
2023/05/10 06:02:18;;;;;;;5.20;3.92;;;12.60;99.90;;;;;;5113650;28;20536;-73
2023/05/10 06:04:43;;;;;;;4.32;3.20;;;12.60;99.90;;;;;;5113605;28;20517;-72
2023/05/10 06:07:09;;;;;;;4.25;2.70;;;12.60;99.90;;;;;;5114483;28;20048;-72
2023/05/10 06:09:35;;;;;;;6.78;3.25;;;12.70;99.90;;;;;;5113855;28;20042;-72
2023/05/10 06:12:01;;;;;;;7.28;3.20;;;12.70;99.90;;;;;;5113231;28;20044;-73
2023/05/10 06:14:27;;;;;;;4.57;3.17;;;12.60;99.90;;;;;;5114675;28;20707;-73
2023/05/10 06:16:52;;;;;;;4.90;3.20;;;12.60;99.90;;;;;;5113116;28;20040;-73
2023/05/10 06:19:18;;;;;;;3.92;3.17;;;12.70;99.90;;;;;;5113533;28;20035;-72
2023/05/10 06:21:43;;;;;;;5.28;2.90;;;12.70;99.90;;;;;;5113506;28;20126;-72
2023/05/10 06:24:09;;;;;;;3.60;2.58;;;12.70;99.90;;;;;;5113183;28;20046;-72
2023/05/10 06:26:35;;;;;;;3.65;3.03;;;12.70;99.90;;;;;;5114239;28;20036;-72
2023/05/10 06:29:01;;;;;;;3.75;3.25;;;12.60;99.90;;;;;;5114462;28;20461;-73
2023/05/10 06:31:26;;;;;;;4.13;2.65;;;12.70;99.90;;;;;;5114481;28;20027;-72
2023/05/10 06:33:52;;;;;;;3.53;2.67;;;12.70;99.90;;;;;;5112967;28;20544;-72
2023/05/10 06:36:17;;;;;;;4.55;2.67;;;12.70;99.90;;;;;;5114213;28;20120;-72
2023/05/10 06:38:43;;;;;;;3.47;2.17;;;12.70;99.90;;;;;;5112852;28;20410;-72
2023/05/10 06:41:09;;;;;;;5.25;2.25;;;12.70;99.90;;;;;;5114083;28;20517;-72
2023/05/10 06:43:34;;;;;;;4.40;2.38;;;12.70;99.90;;;;;;5113045;28;20043;-72
2023/05/10 06:46:00;;;;;;;2.42;2.05;;;12.70;99.90;;;;;;5114172;28;20495;-73
2023/05/10 06:48:25;;;;;;;3.67;2.17;;;12.70;99.90;;;;;;5112825;28;20054;-73
2023/05/10 06:50:51;;;;;;;2.90;1.77;;;12.70;99.90;;;;;;5113918;28;20047;-72
2023/05/10 06:53:17;;;;;;;2.70;1.70;;;12.70;99.90;;;;;;5112217;28;20096;-72
2023/05/10 06:55:43;;;;;;;3.47;1.50;;;12.70;99.90;;;;;;5097127;28;20045;-73
2023/05/10 06:58:09;;;;;;;3.28;1.95;;;12.70;99.90;;;;;;5107757;28;20119;-72
2023/05/10 07:00:34;;;;;;;3.22;2.15;;;12.70;99.90;;;;;;5112273;28;20445;-72
2023/05/10 07:03:00;;;;;;;4.07;2.50;;;12.70;99.90;;;;;;5113593;28;20127;-72
2023/05/10 07:05:27;;;;;;;3.45;2.42;;;12.70;99.90;;;;;;5112331;28;20073;-72
2023/05/10 07:07:53;;;;;;;6.63;2.97;;;12.70;99.90;;;;;;5113564;28;20122;-72
2023/05/10 07:10:18;;;;;;;4.68;2.70;;;12.70;99.90;;;;;;5113481;28;20122;-72
2023/05/10 07:12:44;;;;;;;6.55;3.97;;;12.70;99.90;;;;;;5112098;28;20051;-72
2023/05/10 07:15:10;;;;;;;6.95;4.35;;;12.70;99.90;;;;;;5112157;28;20031;-72
2023/05/10 07:17:35;;;;;;;10.10;5.30;;;12.70;99.90;;;;;;5113501;28;20403;-73
2023/05/10 07:20:01;;;;;;;10.63;4.63;;;12.60;99.90;;;;;;5113469;28;20035;-72
2023/05/10 07:22:27;;;;;;;7.70;4.32;;;12.70;99.90;;;;;;5113415;28;20035;-73
2023/05/10 07:24:52;;;;;;;9.00;5.43;;;12.70;99.90;;;;;;5113212;28;20035;-72
2023/05/10 07:27:18;;;;;;;8.25;4.80;;;12.70;99.90;;;;;;5112054;28;20040;-72
2023/05/10 07:29:43;;;;;;;10.13;5.30;;;12.60;99.90;;;;;;5112131;28;20039;-72
2023/05/10 07:32:09;;;;;;;6.35;3.38;;;12.60;99.90;;;;;;5113229;28;20039;-72
2023/05/10 07:34:34;;;;;;;4.95;3.17;;;12.70;99.90;;;;;;5111954;28;20067;-73
2023/05/10 07:37:00;;;;;;;5.05;3.33;;;12.60;99.90;;;;;;5111891;28;20100;-73
2023/05/10 07:39:29;;;;;;;4.32;3.03;;;12.60;99.90;;;;;;5113182;28;20487;-73
2023/05/10 07:41:55;;;;;;;5.55;3.35;;;12.60;99.90;;;;;;5111746;28;20035;-72
2023/05/10 07:44:20;;;;;;;4.18;2.45;;;12.60;99.90;;;;;;5113190;28;20053;-73
2023/05/10 07:46:47;;;;;;;4.50;2.70;;;12.60;99.90;;;;;;5112956;28;20035;-72
2023/05/10 07:49:13;;;;;;;4.32;2.80;;;12.60;99.90;;;;;;5112938;28;20454;-72
2023/05/10 07:51:38;;;;;;;3.30;2.45;;;12.70;99.90;;;;;;5112720;28;20070;-72
2023/05/10 07:54:04;;;;;;;4.03;2.80;;;12.70;99.90;;;;;;5111382;28;20415;-72
2023/05/10 07:56:32;;;;;;;3.17;2.28;;;12.70;99.90;;;;;;5111612;28;20388;-72
2023/05/10 07:58:59;;;;;;;3.90;3.17;;;12.80;99.90;;;;;;5112799;28;20047;-72
2023/05/10 08:01:25;;;;;;;4.60;2.90;;;12.70;99.90;;;;;;5111239;28;20032;-72
2023/05/10 08:03:51;;;;;;;6.00;3.03;;;12.80;99.90;;;;;;5112725;28;20479;-72
2023/05/10 08:06:20;;;;;;;4.68;3.00;;;12.80;99.90;;;;;;5111244;28;20085;-72
2023/05/10 08:08:49;;;;;;;4.05;3.15;;;12.90;99.90;;;;;;5111058;28;20122;-72
2023/05/10 08:11:18;;;;;;;4.20;3.38;;;12.90;99.90;;;;;;5111292;28;20599;-72
2023/05/10 08:13:44;;;;;;;4.72;3.83;;;12.90;99.90;;;;;;5112323;28;20040;-73
2023/05/10 08:16:10;;;;;;;4.47;3.50;;;13.00;99.90;;;;;;5111172;28;20074;-73
2023/05/10 08:18:36;;;;;;;4.60;3.80;;;12.90;99.90;;;;;;5111018;28;20077;-73
2023/05/10 08:21:01;;;;;;;5.30;3.70;;;12.90;99.90;;;;;;5112343;28;20039;-72
2023/05/10 08:23:27;;;;;;;3.80;3.10;;;12.90;99.90;;;;;;5112164;28;20075;-72
2023/05/10 08:25:53;;;;;;;4.03;3.63;;;12.80;99.90;;;;;;5112185;28;20066;-72
2023/05/10 08:28:18;;;;;;;5.95;3.47;;;12.80;99.90;;;;;;5112264;28;20114;-71
2023/05/10 08:30:44;;;;;;;4.13;3.55;;;12.90;99.90;;;;;;5112314;28;20047;-71
2023/05/10 08:33:09;;;;;;;5.18;4.40;;;12.80;99.90;;;;;;5111591;28;20047;-70
2023/05/10 08:35:35;;;;;;;5.38;3.67;;;12.80;99.90;;;;;;5111076;28;20491;-70
2023/05/10 08:38:01;;;;;;;6.85;4.40;;;12.80;99.90;;;;;;5111218;28;20816;-69
2023/05/10 08:40:26;;;;;;;7.63;3.95;;;12.80;99.90;;;;;;5111150;28;20036;-69
2023/05/10 08:43:06;;;;;;;5.95;4.18;;;12.80;99.90;;;;;;5112225;28;20067;-69
2023/05/10 08:45:39;;;;;;;5.60;4.53;;;12.80;99.90;;;;;;5110956;28;20082;-69
2023/05/10 08:48:10;;;;;;;6.80;4.80;;;12.80;99.90;;;;;;5110921;28;20040;-69
2023/05/10 08:50:37;;;;;;;6.65;4.40;;;12.80;99.90;;;;;;5112303;28;20126;-69
2023/05/10 08:53:06;;;;;;;7.68;3.95;;;12.80;99.90;;;;;;5111760;28;20040;-70
2023/05/10 08:55:33;;;;;;;6.95;4.53;;;12.80;99.90;;;;;;5110823;28;20047;-70
2023/05/10 08:58:02;;;;;;;6.40;4.57;;;12.80;99.90;;;;;;5111971;28;20084;-70
2023/05/10 09:00:28;;;;;;;5.25;4.30;;;12.90;99.90;;;;;;5112205;28;20032;-69
2023/05/10 09:02:54;;;;;;;7.07;4.43;;;12.90;99.90;;;;;;5111931;28;20050;-69
2023/05/10 09:05:20;;;;;;;8.82;3.83;;;12.90;99.90;;;;;;5112204;28;20035;-69
2023/05/10 09:07:45;;;;;;;6.85;4.85;;;12.90;99.90;;;;;;5111899;28;20043;-69
2023/05/10 09:10:13;;;;;;;6.28;4.10;;;13.00;99.90;;;;;;5111922;28;20071;-69
2023/05/10 09:12:38;;;;;;;4.38;3.67;;;13.00;99.90;;;;;;5111755;28;20048;-69
2023/05/10 09:15:06;;;;;;;5.13;4.05;;;13.10;99.90;;;;;;5110415;28;20038;-69
2023/05/10 09:17:32;;;;;;;6.22;4.55;;;13.10;99.90;;;;;;5111790;28;20046;-67
2023/05/10 09:19:59;;;;;;;8.15;5.00;;;13.10;99.90;;;;;;5111374;28;20448;-69
2023/05/10 09:22:25;;;;;;;6.38;4.55;;;13.20;99.90;;;;;;5111633;28;20092;-69
2023/05/10 09:25:13;;;;;;;6.45;4.78;;;13.20;99.90;;;;;;5112332;28;20040;-69
2023/05/10 09:27:41;;;;;;;9.55;4.32;;;13.20;99.90;;;;;;5111701;28;20044;-69
2023/05/10 09:30:07;;;;;;;6.80;4.03;;;13.20;99.90;;;;;;5111690;28;20043;-70
2023/05/10 09:32:44;;;;;;;5.95;4.22;;;13.10;99.90;;;;;;5111676;28;20115;-69
2023/05/10 09:35:15;;;;;;;6.20;3.58;;;13.20;99.90;;;;;;5111898;28;20541;-69
2023/05/10 09:37:42;;;;;;;5.32;3.85;;;13.20;99.90;;;;;;5112345;28;20441;-69
2023/05/10 09:40:12;;;;;;;7.68;4.90;;;13.30;99.90;;;;;;5111453;28;20040;-69
2023/05/10 09:42:38;;;;;;;6.35;4.20;;;13.30;99.90;;;;;;5112656;28;20043;-69
2023/05/10 09:45:05;;;;;;;5.75;4.43;;;13.30;99.90;;;;;;5112623;28;20047;-69
2023/05/10 09:47:34;;;;;;;7.50;5.10;;;13.40;99.90;;;;;;5115296;28;20423;-69
2023/05/10 09:50:04;;;;;;;6.22;4.60;;;13.40;99.90;;;;;;5114659;28;20115;-69
2023/05/10 09:52:51;;;;;;;5.93;4.20;;;13.50;99.90;;;;;;5115771;28;20044;-69
2023/05/10 09:55:19;;;;;;;6.47;3.75;;;13.50;99.90;;;;;;5115013;28;20118;-70
2023/05/10 09:57:46;;;;;;;5.40;3.92;;;13.50;99.90;;;;;;5116248;28;20047;-69
2023/05/10 10:00:18;;;;;;;6.38;4.82;;;13.60;99.90;;;;;;5116401;28;20063;-70
2023/05/10 10:02:47;;;;;;;8.25;4.90;;;13.60;99.90;;;;;;5114913;28;20064;-69
2023/05/10 10:05:13;;;;;;;7.53;4.47;;;13.70;99.90;;;;;;5113110;28;20040;-69
2023/05/10 10:07:39;;;;;;;7.25;5.20;;;13.80;99.90;;;;;;5105084;28;20051;-69
2023/05/10 10:10:11;;;;;;;8.70;5.05;;;13.90;99.90;;;;;;5114870;28;20043;-69
2023/05/10 10:12:37;;;;;;;5.50;4.07;;;13.90;99.90;;;;;;5114644;28;20671;-69
2023/05/10 10:15:04;;;;;;;6.00;4.25;;;14.10;99.90;;;;;;5114377;28;20050;-69
2023/05/10 10:17:31;;;;;;;5.07;4.15;;;14.10;99.90;;;;;;5112045;27;20045;-69
2023/05/10 10:19:58;;;;;;;5.07;3.75;;;14.10;99.90;;;;;;5093763;28;20055;-69
2023/05/10 10:22:23;;;;;;;5.85;4.13;;;14.20;99.90;;;;;;5094128;28;20040;-69
2023/05/10 10:24:50;;;;;;;5.75;4.00;;;14.20;99.90;;;;;;5094157;28;20403;-69
2023/05/10 10:27:18;;;;;;;6.93;4.55;;;14.20;99.90;;;;;;5110681;28;20063;-69
2023/05/10 10:30:07;;;;;;;6.32;4.97;;;14.20;99.90;;;;;;5114440;28;20050;-69
2023/05/10 10:33:12;;;;;;;8.10;5.45;;;14.20;99.90;;;;;;5114554;28;20086;-69
2023/05/10 10:35:39;;;;;;;11.68;6.38;;;14.10;99.90;;;;;;5113344;28;20498;-69
2023/05/10 10:38:07;;;;;;;7.45;5.03;;;14.10;99.90;;;;;;5114452;28;20042;-69
2023/05/10 10:40:33;;;;;;;8.25;5.60;;;14.10;99.90;;;;;;5114007;28;20085;-70
2023/05/10 10:43:23;;;;;;;9.05;6.90;;;14.10;99.90;;;;;;5113703;28;20041;-70
2023/05/10 10:46:14;;;;;;;8.00;6.25;;;14.00;99.90;;;;;;5115291;28;20050;-69
2023/05/10 10:49:07;;;;;;;7.22;5.63;;;14.10;99.90;;;;;;5110244;28;20502;-70
2023/05/10 10:51:37;;;;;;;9.30;6.00;;;14.20;99.90;;;;;;5114680;28;20513;-69
2023/05/10 10:54:10;;;;;;;11.27;6.95;;;14.30;99.90;;;;;;5114537;28;20089;-70
2023/05/10 10:56:35;;;;;;;7.32;5.28;;;14.30;99.90;;;;;;5113827;28;20035;-69
2023/05/10 10:59:01;;;;;;;11.32;7.88;;;14.30;99.90;;;;;;5113902;28;20058;-69
2023/05/10 11:01:33;;;;;;;8.18;5.97;;;14.30;99.90;;;;;;5112498;28;20040;-69
2023/05/10 11:03:58;;;;;;;9.68;6.53;;;14.40;99.90;;;;;;5112440;28;20126;-69
2023/05/10 11:06:32;;;;;;;10.30;6.85;;;14.40;99.90;;;;;;5114301;28;20126;-70
2023/05/10 11:08:58;;;;;;;10.35;6.50;;;14.50;99.90;;;;;;5114612;28;20080;-69
2023/05/10 11:11:23;;;;;;;7.65;5.47;;;14.40;99.90;;;;;;5114494;28;20460;-70
2023/05/10 11:13:49;;;;;;;8.20;5.50;;;14.50;99.90;;;;;;5112949;28;20517;-70
2023/05/10 11:16:25;;;;;;;8.80;5.40;;;14.50;99.90;;;;;;5113581;28;20032;-69
2023/05/10 11:18:54;;;;;;;9.18;6.40;;;14.30;99.90;;;;;;5112308;28;20040;-69
2023/05/10 11:21:20;;;;;;;7.60;5.28;;;14.30;99.90;;;;;;5112535;28;20169;-71
2023/05/10 11:23:51;;;;;;;8.07;5.13;;;14.20;99.90;;;;;;5112494;28;20193;-70
2023/05/10 11:26:18;;;;;;;8.48;5.05;;;14.20;99.90;;;;;;5113304;28;20039;-71
2023/05/10 11:28:45;;;;;;;8.60;5.70;;;14.20;99.90;;;;;;5112995;28;20035;-70
2023/05/10 11:31:17;;;;;;;9.52;5.97;;;14.30;99.90;;;;;;5111990;28;20122;-70
2023/05/10 11:33:44;;;;;;;8.55;5.68;;;14.30;99.90;;;;;;5113996;28;20036;-69
2023/05/10 11:36:15;;;;;;;9.35;6.68;;;14.40;99.90;;;;;;5113924;28;20050;-70
2023/05/10 11:38:41;;;;;;;9.48;6.43;;;14.40;99.90;;;;;;5113806;28;20043;-70
2023/05/10 11:41:12;;;;;;;7.85;5.20;;;14.50;99.90;;;;;;5113199;28;20032;-70
2023/05/10 11:43:41;;;;;;;10.95;6.78;;;14.60;99.90;;;;;;5113457;28;20080;-70
2023/05/10 11:46:09;;;;;;;7.65;5.70;;;14.70;99.90;;;;;;5113099;28;20035;-70
2023/05/10 11:48:35;;;;;;;10.10;6.05;;;14.70;99.90;;;;;;5111531;28;20082;-70
2023/05/10 11:51:01;;;;;;;8.27;6.65;;;14.70;99.90;;;;;;5113031;27;20066;-70
2023/05/10 11:53:30;;;;;;;7.72;5.32;;;14.70;99.90;;;;;;5112739;28;20046;-70
2023/05/10 11:55:55;;;;;;;6.60;5.25;;;14.70;99.90;;;;;;5112517;28;20046;-69
2023/05/10 11:58:23;;;;;;;7.90;5.30;;;14.70;99.90;;;;;;5112748;28;20035;-69
2023/05/10 12:00:49;;;;;;;10.45;5.18;;;14.70;99.90;;;;;;5111371;28;20082;-70
2023/05/10 12:03:15;;;;;;;8.38;6.10;;;14.70;99.90;;;;;;5111503;28;20413;-70
2023/05/10 12:05:41;;;;;;;9.95;5.50;;;14.60;99.90;;;;;;5111295;28;20054;-70
2023/05/10 12:08:15;;;;;;;8.68;5.60;;;14.60;99.90;;;;;;5111771;28;20518;-69
2023/05/10 12:10:40;;;;;;;7.97;5.70;;;14.50;99.90;;;;;;5111818;28;20440;-69
2023/05/10 12:13:12;;;;;;;10.27;5.75;;;14.50;99.90;;;;;;5113232;28;20039;-69
2023/05/10 12:15:38;;;;;;;9.80;6.78;;;14.50;99.90;;;;;;5111393;28;20036;-70
2023/05/10 12:18:05;;;;;;;8.15;5.85;;;14.50;99.90;;;;;;5112369;28;20106;-69
2023/05/10 12:20:31;;;;;;;11.20;7.20;;;14.40;99.90;;;;;;5112393;28;20031;-70
2023/05/10 12:22:58;;;;;;;8.48;5.30;;;14.40;99.90;;;;;;5112186;28;20044;-69
2023/05/10 12:25:29;;;;;;;12.82;6.85;;;14.40;99.90;;;;;;5112464;28;20054;-70
2023/05/10 12:27:57;;;;;;;9.15;6.57;;;14.40;99.90;;;;;;5112326;28;20046;-69
2023/05/10 12:30:23;;;;;;;10.85;6.90;;;14.40;99.90;;;;;;5112288;28;20035;-69
2023/05/10 12:32:49;;;;;;;9.57;6.80;;;14.40;99.90;;;;;;5110673;28;20044;-69
2023/05/10 12:35:15;;;;;;;13.38;7.32;;;14.50;99.90;;;;;;5112324;28;20104;-70
2023/05/10 12:37:42;;;;;;;11.98;7.53;;;14.50;99.90;;;;;;5111962;28;20035;-70
2023/05/10 12:40:10;;;;;;;11.45;6.40;;;14.50;99.90;;;;;;5112633;28;20071;-69
2023/05/10 12:42:37;;;;;;;13.30;7.13;;;14.50;99.90;;;;;;5112512;28;20035;-70
2023/05/10 12:45:04;;;;;;;9.50;5.88;;;14.60;99.90;;;;;;5112194;28;20036;-70